Time;durP1;ratioP1;P1;durP2;ratioP2;P2;SDS_P1;SDS_P2;PMS_P1;PMS_P2;Temp;Humidity;BMP_temperature;BMP_pressure;BME280_temperature;BME280_humidity;BME280_pressure;Samples;Min_cycle;Max_cycle;Signal;HPM_P1;HPM_P2
2023/03/14 00:01:34;;;;;;;26.60;2.75;;;10.10;99.90;;;;;;5001154;28;20057;-81
2023/03/14 00:03:59;;;;;;;23.13;2.53;;;10.10;99.90;;;;;;4984623;28;20090;-83
2023/03/14 00:06:25;;;;;;;22.92;2.90;;;10.10;99.90;;;;;;4980059;28;20180;-82
2023/03/14 00:08:51;;;;;;;20.95;3.15;;;10.10;99.90;;;;;;4982880;28;20121;-82
2023/03/14 00:11:21;;;;;;;21.90;2.58;;;10.10;99.90;;;;;;4983354;28;20479;-82
2023/03/14 00:13:51;;;;;;;15.50;2.15;;;10.10;99.90;;;;;;4982526;28;20042;-82
2023/03/14 00:16:16;;;;;;;20.98;2.65;;;10.10;99.90;;;;;;4968251;28;20039;-81
2023/03/14 00:18:42;;;;;;;15.93;2.90;;;10.10;99.90;;;;;;4976091;28;20044;-81
2023/03/14 00:21:10;;;;;;;17.48;2.25;;;10.10;99.90;;;;;;4978104;28;20041;-81
2023/03/14 00:23:38;;;;;;;15.52;1.95;;;10.10;99.90;;;;;;4982034;28;20443;-82
2023/03/14 00:26:06;;;;;;;18.25;2.55;;;10.10;99.90;;;;;;4980437;28;20085;-81
2023/03/14 00:28:32;;;;;;;14.45;2.28;;;10.00;99.90;;;;;;4981574;28;20041;-84
2023/03/14 00:30:58;;;;;;;11.18;1.67;;;10.00;99.90;;;;;;4981306;28;20027;-82
2023/03/14 00:33:23;;;;;;;13.35;1.77;;;10.00;99.90;;;;;;4978266;28;20034;-82
2023/03/14 00:36:11;;;;;;;17.10;2.35;;;10.00;99.90;;;;;;4977385;28;20141;-83
2023/03/14 00:38:38;;;;;;;14.98;2.20;;;9.90;99.90;;;;;;4972353;28;20030;-83
2023/03/14 00:41:05;;;;;;;13.63;2.53;;;9.90;99.90;;;;;;4981927;28;20096;-82
2023/03/14 00:43:31;;;;;;;15.05;2.28;;;9.90;99.90;;;;;;4980961;28;20029;-81
2023/03/14 00:45:57;;;;;;;13.65;2.03;;;9.90;99.90;;;;;;4977105;28;20532;-81
2023/03/14 00:48:22;;;;;;;12.93;2.08;;;10.00;99.90;;;;;;4980790;28;20096;-81
2023/03/14 00:50:48;;;;;;;20.05;2.83;;;10.00;99.90;;;;;;4980874;28;20022;-81
2023/03/14 00:53:14;;;;;;;20.80;2.20;;;9.90;99.90;;;;;;4982157;28;20445;-81
2023/03/14 00:55:42;;;;;;;16.25;1.80;;;10.00;99.90;;;;;;4967599;28;20056;-84
2023/03/14 00:58:08;;;;;;;16.42;3.25;;;9.90;99.90;;;;;;4982572;28;20054;-80
2023/03/14 01:00:35;;;;;;;9.13;1.70;;;9.90;99.90;;;;;;4982706;28;20027;-82
2023/03/14 01:03:01;;;;;;;9.00;1.48;;;9.90;99.90;;;;;;4979563;28;20083;-81
2023/03/14 01:05:27;;;;;;;10.05;1.27;;;9.90;99.90;;;;;;4975960;28;20042;-82
2023/03/14 01:07:53;;;;;;;12.52;1.50;;;9.90;99.90;;;;;;4972687;28;20143;-82
2023/03/14 01:10:19;;;;;;;8.57;1.00;;;9.80;99.90;;;;;;4980743;28;20037;-81
2023/03/14 01:12:44;;;;;;;10.48;1.17;;;9.80;99.90;;;;;;4980568;28;20027;-81
2023/03/14 01:15:10;;;;;;;4.90;0.90;;;9.80;99.90;;;;;;4979379;28;20042;-81
2023/03/14 01:17:39;;;;;;;5.82;0.90;;;9.80;99.90;;;;;;4983587;28;20058;-81
2023/03/14 01:20:10;;;;;;;8.82;0.90;;;9.80;99.90;;;;;;4984981;28;20497;-81
2023/03/14 01:22:39;;;;;;;5.30;1.00;;;9.70;99.90;;;;;;4985017;28;20090;-82
2023/03/14 01:25:06;;;;;;;2.72;0.80;;;9.80;99.90;;;;;;4982572;28;20402;-80
2023/03/14 01:27:32;;;;;;;2.33;0.47;;;9.80;99.90;;;;;;4983189;28;20026;-81
2023/03/14 01:29:58;;;;;;;4.53;0.73;;;9.80;99.90;;;;;;4985993;28;20031;-81
2023/03/14 01:32:25;;;;;;;5.43;0.73;;;9.80;99.90;;;;;;4983828;28;20118;-82
2023/03/14 01:34:51;;;;;;;5.70;0.60;;;9.80;99.90;;;;;;4982294;28;20073;-82
2023/03/14 01:37:17;;;;;;;2.95;0.73;;;9.80;99.90;;;;;;4969312;28;20037;-81
2023/03/14 01:39:43;;;;;;;2.38;0.70;;;9.80;99.90;;;;;;4974529;28;20492;-80
2023/03/14 01:42:08;;;;;;;2.10;0.80;;;9.80;99.90;;;;;;4982376;28;20510;-80
2023/03/14 01:45:26;;;;;;;4.70;0.90;;;9.80;99.90;;;;;;4984405;28;20393;-80
2023/03/14 01:47:52;;;;;;;5.22;0.90;;;9.80;99.90;;;;;;4951338;28;20050;-80
2023/03/14 01:50:17;;;;;;;6.70;1.20;;;9.80;99.90;;;;;;4985102;28;20129;-80
2023/03/14 01:52:47;;;;;;;8.25;1.05;;;9.80;99.90;;;;;;4982816;28;20030;-80
2023/03/14 01:55:17;;;;;;;4.78;0.85;;;9.80;99.90;;;;;;4984536;28;20034;-81
2023/03/14 01:57:51;;;;;;;3.90;1.00;;;9.90;99.90;;;;;;4986243;28;20049;-81
2023/03/14 02:00:20;;;;;;;7.13;1.20;;;9.90;99.90;;;;;;4985860;28;20034;-81
2023/03/14 02:03:00;;;;;;;6.55;1.23;;;9.90;99.90;;;;;;4983184;28;20068;-82
2023/03/14 02:05:31;;;;;;;7.53;1.20;;;9.90;99.90;;;;;;4968525;28;20022;-80
2023/03/14 02:07:59;;;;;;;5.27;1.50;;;9.90;99.90;;;;;;4970403;28;20030;-82
2023/03/14 02:10:32;;;;;;;7.18;1.20;;;10.00;99.90;;;;;;4978377;28;20290;-81
2023/03/14 02:13:01;;;;;;;4.32;0.70;;;10.00;99.90;;;;;;4982690;28;20435;-80
2023/03/14 02:15:27;;;;;;;1.40;0.30;;;9.80;99.90;;;;;;4980896;28;20636;-80
2023/03/14 02:17:53;;;;;;;2.60;0.40;;;9.40;99.90;;;;;;4978211;28;20061;-80
2023/03/14 02:20:22;;;;;;;0.40;0.30;;;9.10;99.90;;;;;;4984648;28;20104;-80
2023/03/14 02:22:48;;;;;;;0.82;0.30;;;8.90;99.90;;;;;;4977371;28;20085;-81
2023/03/14 02:25:23;;;;;;;1.88;0.55;;;8.70;99.90;;;;;;4984546;28;20121;-80
2023/03/14 02:27:49;;;;;;;2.22;0.40;;;8.50;99.90;;;;;;4984229;28;20094;-80
2023/03/14 02:30:19;;;;;;;0.50;0.40;;;8.30;99.90;;;;;;4978794;28;20033;-82
2023/03/14 02:32:49;;;;;;;0.73;0.55;;;8.20;99.90;;;;;;4976365;28;20031;-80
2023/03/14 02:35:20;;;;;;;2.83;0.70;;;8.10;99.90;;;;;;4959049;28;20038;-81
2023/03/14 02:37:55;;;;;;;0.85;0.50;;;8.10;99.90;;;;;;4964826;28;20067;-80
2023/03/14 02:40:21;;;;;;;2.25;0.70;;;8.00;99.90;;;;;;4973266;28;20042;-80
2023/03/14 02:42:47;;;;;;;1.23;0.52;;;7.90;99.90;;;;;;4972854;28;20402;-80
2023/03/14 02:45:15;;;;;;;4.85;0.60;;;7.90;99.90;;;;;;4980559;28;20027;-80
2023/03/14 02:47:46;;;;;;;1.98;0.60;;;7.80;99.90;;;;;;4970452;28;20085;-80
2023/03/14 02:50:14;;;;;;;;;;;7.80;99.90;;;;;;4976587;28;20034;-80
2023/03/14 02:52:40;;;;;;;1.27;0.65;;;7.80;99.90;;;;;;4980811;28;19917;-81
2023/03/14 02:55:06;;;;;;;1.42;0.50;;;7.80;99.90;;;;;;4980865;28;20048;-81
2023/03/14 02:57:31;;;;;;;2.47;0.65;;;7.80;99.90;;;;;;4982211;28;20359;-81
2023/03/14 03:00:03;;;;;;;2.70;0.80;;;7.70;99.90;;;;;;4981039;28;20030;-80
2023/03/14 03:02:29;;;;;;;1.60;0.50;;;7.70;99.90;;;;;;4978805;28;20022;-81
2023/03/14 03:04:55;;;;;;;0.80;0.50;;;7.70;99.90;;;;;;5435817;23;20977;-80
2023/03/14 03:07:20;;;;;;;2.60;0.60;;;7.60;99.90;;;;;;4968305;28;20041;-80
2023/03/14 03:09:46;;;;;;;3.65;0.52;;;7.60;99.90;;;;;;4971175;28;20105;-80
2023/03/14 03:12:12;;;;;;;1.30;0.50;;;7.50;99.90;;;;;;4966356;28;20084;-80
2023/03/14 03:14:38;;;;;;;1.85;0.40;;;7.40;99.90;;;;;;4984261;28;20037;-80
2023/03/14 03:17:05;;;;;;;1.20;0.57;;;7.20;99.90;;;;;;4982982;28;20064;-80
2023/03/14 03:19:31;;;;;;;2.17;0.47;;;7.10;99.90;;;;;;4984820;28;20026;-81
2023/03/14 03:21:57;;;;;;;1.13;0.50;;;7.00;99.90;;;;;;4984130;28;20046;-80
2023/03/14 03:24:24;;;;;;;1.40;0.88;;;6.90;99.90;;;;;;4981996;28;20108;-79
2023/03/14 03:26:50;;;;;;;0.70;0.47;;;6.80;99.90;;;;;;4969332;28;20035;-81
2023/03/14 03:29:15;;;;;;;1.48;0.70;;;6.70;99.90;;;;;;4979628;28;20112;-80
2023/03/14 03:31:41;;;;;;;1.15;0.85;;;6.70;99.90;;;;;;4982975;28;20033;-81
2023/03/14 03:34:07;;;;;;;3.03;0.80;;;6.70;99.90;;;;;;4982002;28;20056;-80
2023/03/14 03:36:33;;;;;;;0.82;0.80;;;6.60;99.90;;;;;;4983373;28;20552;-80
2023/03/14 03:38:58;;;;;;;1.08;0.63;;;6.60;99.90;;;;;;4985570;28;20038;-80
2023/03/14 03:41:24;;;;;;;2.13;0.70;;;6.60;99.90;;;;;;4972924;28;20116;-80
2023/03/14 03:43:50;;;;;;;0.82;0.50;;;6.50;99.90;;;;;;4982932;28;20023;-81
2023/03/14 03:46:15;;;;;;;1.02;0.68;;;6.50;99.90;;;;;;4977321;28;20061;-80
2023/03/14 03:48:41;;;;;;;0.60;0.52;;;6.50;99.90;;;;;;4967219;28;20213;-80
2023/03/14 03:51:06;;;;;;;1.77;0.50;;;6.40;99.90;;;;;;4979495;28;20038;-80
2023/03/14 03:53:32;;;;;;;1.85;0.57;;;6.30;99.90;;;;;;4982968;28;20045;-79
2023/03/14 03:55:58;;;;;;;4.47;0.70;;;6.30;99.90;;;;;;4978270;28;20034;-80
2023/03/14 03:58:23;;;;;;;1.63;0.65;;;6.20;99.90;;;;;;4979436;28;20761;-80
2023/03/14 04:00:49;;;;;;;0.47;0.45;;;6.20;99.90;;;;;;4975407;28;20042;-80
2023/03/14 04:03:14;;;;;;;3.58;1.15;;;6.20;99.90;;;;;;4982984;28;20441;-81
2023/03/14 04:05:40;;;;;;;1.02;0.60;;;6.20;99.90;;;;;;4965564;28;20054;-80
2023/03/14 04:08:06;;;;;;;3.72;0.55;;;6.10;99.90;;;;;;4979639;28;20441;-80
2023/03/14 04:10:35;;;;;;;1.20;0.50;;;6.10;99.90;;;;;;4983891;28;20034;-80
2023/03/14 04:13:01;;;;;;;2.40;0.60;;;6.10;99.90;;;;;;4970056;28;20473;-79
2023/03/14 04:15:26;;;;;;;1.60;0.50;;;5.90;99.90;;;;;;4964137;28;20059;-80
2023/03/14 04:17:57;;;;;;;3.13;0.80;;;5.90;99.90;;;;;;4955845;28;20034;-81
2023/03/14 04:20:23;;;;;;;2.15;0.60;;;5.90;99.90;;;;;;4964021;28;20034;-80
2023/03/14 04:22:48;;;;;;;2.28;0.65;;;5.80;99.90;;;;;;4982065;28;20026;-79
2023/03/14 04:25:16;;;;;;;3.92;0.80;;;5.80;99.90;;;;;;4983169;28;20197;-79
2023/03/14 04:27:41;;;;;;;1.83;0.70;;;5.80;99.90;;;;;;4983334;28;20054;-80
2023/03/14 04:30:08;;;;;;;4.75;0.90;;;5.70;99.90;;;;;;4982710;28;20034;-78
2023/03/14 04:32:33;;;;;;;5.82;0.70;;;5.70;99.90;;;;;;4976867;28;20035;-79
2023/03/14 04:34:59;;;;;;;3.75;1.00;;;5.70;99.90;;;;;;4976392;28;20053;-80
2023/03/14 04:37:24;;;;;;;5.35;0.90;;;5.70;99.90;;;;;;4982844;28;20045;-79
2023/03/14 04:39:50;;;;;;;2.42;0.98;;;5.60;99.90;;;;;;4964257;28;20057;-79
2023/03/14 04:42:16;;;;;;;1.55;0.80;;;5.50;99.90;;;;;;4963704;28;20133;-80
2023/03/14 04:44:43;;;;;;;8.02;0.90;;;5.40;99.90;;;;;;4982555;28;20041;-80
2023/03/14 04:47:08;;;;;;;5.53;1.15;;;5.40;99.90;;;;;;4972584;28;20086;-81
2023/03/14 04:49:34;;;;;;;2.00;1.00;;;5.40;99.90;;;;;;4970592;28;20643;-80
2023/03/14 04:51:59;;;;;;;2.00;0.80;;;5.30;99.90;;;;;;4978410;28;20059;-80
2023/03/14 04:54:25;;;;;;;6.38;1.00;;;5.20;99.90;;;;;;4981970;28;20042;-80
2023/03/14 04:56:50;;;;;;;7.18;1.20;;;5.20;99.90;;;;;;4980518;28;20037;-82
2023/03/14 04:59:16;;;;;;;7.13;0.90;;;5.10;99.90;;;;;;4972148;28;20033;-81
2023/03/14 05:01:42;;;;;;;5.57;0.93;;;5.00;99.90;;;;;;4969363;28;20132;-82
2023/03/14 05:04:07;;;;;;;7.50;1.15;;;4.90;99.90;;;;;;4981283;28;20122;-81
2023/03/14 05:06:33;;;;;;;5.13;0.70;;;4.90;99.90;;;;;;4982606;28;20063;-81
2023/03/14 05:08:58;;;;;;;3.03;0.90;;;4.90;99.90;;;;;;4982193;28;20351;-81
2023/03/14 05:11:24;;;;;;;5.00;1.23;;;4.90;99.90;;;;;;4982451;28;20034;-82
2023/03/14 05:13:50;;;;;;;5.22;0.73;;;4.90;99.90;;;;;;4966901;28;20098;-81
2023/03/14 05:16:15;;;;;;;4.97;0.80;;;4.90;99.90;;;;;;4976755;28;20096;-80
2023/03/14 05:18:41;;;;;;;3.40;1.00;;;4.80;99.90;;;;;;4970727;28;20142;-81
2023/03/14 05:21:06;;;;;;;7.10;1.08;;;4.80;99.90;;;;;;4971133;28;20030;-80
2023/03/14 05:23:32;;;;;;;3.20;0.75;;;4.80;99.90;;;;;;4982130;28;20488;-81
2023/03/14 05:25:58;;;;;;;3.58;1.42;;;4.70;99.90;;;;;;4976227;28;20038;-81
2023/03/14 05:28:23;;;;;;;3.05;0.75;;;4.70;99.90;;;;;;4967457;28;20030;-80
2023/03/14 05:30:49;;;;;;;3.33;0.73;;;4.70;99.90;;;;;;4974557;28;20037;-80
2023/03/14 05:33:14;;;;;;;2.80;0.93;;;4.60;99.90;;;;;;4982862;28;20034;-81
2023/03/14 05:35:41;;;;;;;6.10;0.85;;;4.60;99.90;;;;;;4981243;28;20050;-81
2023/03/14 05:38:07;;;;;;;6.15;1.05;;;4.60;99.90;;;;;;4982902;28;20544;-83
2023/03/14 05:40:32;;;;;;;4.85;1.15;;;4.50;99.90;;;;;;4984961;28;20042;-81
2023/03/14 05:42:58;;;;;;;3.67;0.70;;;4.50;99.90;;;;;;4986495;28;20026;-81
2023/03/14 05:45:23;;;;;;;3.55;0.68;;;4.50;99.90;;;;;;4981291;28;20486;-81
2023/03/14 05:47:49;;;;;;;4.57;1.02;;;4.50;99.90;;;;;;4967123;28;20053;-81
2023/03/14 05:50:14;;;;;;;2.55;0.98;;;4.40;99.90;;;;;;4973974;28;20022;-81
2023/03/14 05:52:40;;;;;;;5.10;1.13;;;4.40;99.90;;;;;;4986351;28;20038;-81
2023/03/14 05:55:06;;;;;;;6.07;1.10;;;4.30;99.90;;;;;;4982453;28;20046;-81
2023/03/14 05:57:32;;;;;;;5.40;1.02;;;4.40;99.90;;;;;;4967494;28;20660;-81
2023/03/14 05:59:57;;;;;;;7.38;0.90;;;4.30;99.90;;;;;;4966838;28;20058;-82
2023/03/14 06:02:23;;;;;;;5.53;1.63;;;4.30;99.90;;;;;;4971243;28;20632;-80
2023/03/14 06:04:48;;;;;;;4.57;1.00;;;4.20;99.90;;;;;;4982061;28;20130;-81
2023/03/14 06:07:14;;;;;;;2.75;0.80;;;4.20;99.90;;;;;;4983897;28;20038;-82
2023/03/14 06:09:40;;;;;;;6.43;0.90;;;4.20;99.90;;;;;;4978501;28;20046;-81
2023/03/14 06:12:05;;;;;;;5.45;1.20;;;4.20;99.90;;;;;;4966503;28;20034;-81
2023/03/14 06:14:31;;;;;;;7.68;1.40;;;4.20;99.90;;;;;;4960046;28;20031;-81
2023/03/14 06:16:58;;;;;;;10.45;1.35;;;4.20;99.90;;;;;;4980087;28;20129;-81
2023/03/14 06:19:24;;;;;;;8.80;1.20;;;4.20;99.90;;;;;;4973314;28;20046;-82
2023/03/14 06:21:50;;;;;;;5.45;1.88;;;4.20;99.90;;;;;;4967178;28;20440;-82
2023/03/14 06:24:16;;;;;;;7.10;1.05;;;4.20;99.90;;;;;;4965612;28;20043;-80
2023/03/14 06:26:42;;;;;;;11.25;1.35;;;4.20;99.90;;;;;;4978252;28;20052;-81
2023/03/14 06:29:07;;;;;;;3.17;0.80;;;4.20;99.90;;;;;;4970102;28;20102;-81
2023/03/14 06:31:33;;;;;;;5.55;1.20;;;4.20;99.90;;;;;;4966646;28;20042;-80
2023/03/14 06:33:59;;;;;;;10.15;1.27;;;4.30;99.90;;;;;;4964789;28;20446;-81
2023/03/14 06:36:25;;;;;;;10.35;1.27;;;4.30;99.90;;;;;;4964510;28;20038;-81
2023/03/14 06:38:50;;;;;;;6.38;1.10;;;4.30;99.90;;;;;;4953431;28;20031;-81
2023/03/14 06:41:16;;;;;;;7.18;0.90;;;4.50;99.90;;;;;;4946300;29;20041;-82
2023/03/14 06:43:42;;;;;;;8.95;1.25;;;4.90;99.90;;;;;;4947144;28;20033;-81
2023/03/14 06:46:08;;;;;;;8.68;1.45;;;5.40;99.90;;;;;;4964253;28;20438;-80
2023/03/14 06:48:33;;;;;;;5.30;0.88;;;5.70;99.90;;;;;;4964994;28;20141;-81
2023/03/14 06:50:59;;;;;;;3.08;0.60;;;5.80;99.90;;;;;;4959351;28;20031;-81
2023/03/14 06:53:25;;;;;;;5.43;1.00;;;5.80;99.90;;;;;;4963366;28;20038;-81
2023/03/14 06:55:50;;;;;;;8.15;1.52;;;5.90;99.90;;;;;;4962042;28;20039;-80
2023/03/14 06:58:16;;;;;;;3.20;0.90;;;6.30;99.90;;;;;;4965294;28;20035;-81
2023/03/14 07:00:42;;;;;;;8.68;1.27;;;7.20;99.00;;;;;;4942620;28;20037;-81
2023/03/14 07:03:09;;;;;;;7.68;0.80;;;7.90;94.10;;;;;;4948088;28;20031;-82
2023/03/14 07:05:35;;;;;;;7.68;1.15;;;8.50;88.00;;;;;;4953810;28;20075;-82
2023/03/14 07:08:00;;;;;;;64.80;26.08;;;9.60;78.70;;;;;;4980281;28;20031;-83
2023/03/14 07:10:26;;;;;;;6.57;2.17;;;10.60;69.90;;;;;;4983169;28;20092;-82
2023/03/14 07:12:53;;;;;;;10.52;1.40;;;11.10;62.70;;;;;;4980088;28;20621;-82
2023/03/14 07:15:19;;;;;;;4.22;0.85;;;11.00;62.50;;;;;;4983332;28;20081;-83
2023/03/14 07:17:45;;;;;;;10.23;1.52;;;11.10;62.30;;;;;;4966186;28;20030;-83
2023/03/14 07:20:10;;;;;;;8.00;1.00;;;11.00;62.80;;;;;;4985756;28;20385;-83
2023/03/14 07:22:36;;;;;;;9.68;1.02;;;11.10;62.50;;;;;;4965962;28;20477;-83
2023/03/14 07:25:02;;;;;;;191.82;80.20;;;11.20;62.70;;;;;;4979816;28;20018;-82
2023/03/14 07:27:27;;;;;;;7.90;2.08;;;10.80;61.90;;;;;;4984928;28;20089;-81
2023/03/14 07:29:53;;;;;;;7.38;1.73;;;10.60;65.20;;;;;;4962025;28;20034;-84
2023/03/14 07:32:18;;;;;;;5.93;1.42;;;10.60;66.60;;;;;;4961751;28;20029;-84
2023/03/14 07:34:44;;;;;;;5.70;1.02;;;10.80;64.00;;;;;;4976138;28;20069;-84
2023/03/14 07:37:10;;;;;;;7.65;1.05;;;10.70;64.40;;;;;;4980171;28;20095;-82
2023/03/14 07:39:35;;;;;;;4.57;2.28;;;10.10;66.40;;;;;;4952330;28;20038;-84
2023/03/14 07:42:01;;;;;;;5.88;1.42;;;10.20;68.70;;;;;;4971450;28;20439;-83
2023/03/14 07:44:27;;;;;;;3.45;0.80;;;10.20;68.30;;;;;;4967290;28;20026;-83
2023/03/14 07:46:52;;;;;;;5.82;0.90;;;10.10;72.40;;;;;;4984618;28;20076;-83
2023/03/14 07:49:18;;;;;;;7.15;0.93;;;10.10;68.90;;;;;;4979216;28;20509;-83
2023/03/14 07:51:46;;;;;;;7.20;1.08;;;10.10;69.20;;;;;;4978200;28;20041;-83
2023/03/14 07:54:12;;;;;;;7.38;1.02;;;9.90;70.40;;;;;;4984181;28;20525;-84
2023/03/14 07:56:37;;;;;;;5.25;0.80;;;9.60;71.80;;;;;;4982382;28;20042;-83
2023/03/14 07:59:03;;;;;;;4.18;0.70;;;9.40;76.70;;;;;;4962164;28;20549;-82
2023/03/14 08:01:29;;;;;;;5.82;1.10;;;9.30;80.10;;;;;;4983904;28;20030;-83
2023/03/14 08:03:54;;;;;;;8.32;1.17;;;9.30;78.60;;;;;;4624903;28;10000248;-82
2023/03/14 08:06:20;;;;;;;2.63;0.85;;;9.90;77.80;;;;;;4971437;28;20051;-84
2023/03/14 08:08:46;;;;;;;5.50;0.90;;;10.00;71.40;;;;;;4982009;28;20109;-83
2023/03/14 08:11:12;;;;;;;4.97;0.85;;;10.00;72.50;;;;;;4977795;28;20038;-82
2023/03/14 08:13:38;;;;;;;5.75;1.10;;;10.10;75.60;;;;;;4973536;28;20037;-83
2023/03/14 08:16:04;;;;;;;4.78;1.08;;;10.50;69.30;;;;;;4979133;28;20131;-84
2023/03/14 08:18:30;;;;;;;3.47;0.85;;;10.70;67.70;;;;;;5001576;28;20121;-83
2023/03/14 08:20:56;;;;;;;4.47;1.15;;;10.70;67.50;;;;;;4983901;28;20100;-82
2023/03/14 08:23:21;;;;;;;4.88;0.98;;;10.50;69.60;;;;;;4981376;28;20061;-83
2023/03/14 08:25:51;;;;;;;5.10;1.02;;;11.30;65.80;;;;;;4978685;28;20056;-82
2023/03/14 08:28:18;;;;;;;3.17;0.75;;;11.80;62.70;;;;;;4957944;28;20026;-82
2023/03/14 08:30:43;;;;;;;4.28;0.73;;;11.70;59.70;;;;;;4982710;28;21144;-82
2023/03/14 08:33:09;;;;;;;3.78;0.80;;;11.60;62.70;;;;;;4978949;28;20095;-82
2023/03/14 08:35:35;;;;;;;5.93;1.20;;;10.90;63.10;;;;;;4953259;28;20266;-83
2023/03/14 08:38:01;;;;;;;4.68;1.02;;;10.40;66.70;;;;;;4982502;28;20023;-81
2023/03/14 08:40:26;;;;;;;3.25;0.80;;;10.10;69.90;;;;;;4971478;28;20031;-83
2023/03/14 08:42:52;;;;;;;3.25;0.77;;;9.70;70.30;;;;;;4966778;28;20048;-83
2023/03/14 08:45:18;;;;;;;4.80;1.10;;;9.50;73.30;;;;;;4965942;28;20034;-83
2023/03/14 08:47:44;;;;;;;6.55;0.82;;;9.20;73.60;;;;;;4973517;28;20485;-83
2023/03/14 08:50:12;;;;;;;4.50;1.00;;;9.30;73.60;;;;;;4974697;28;20030;-83
2023/03/14 08:52:40;;;;;;;4.43;0.98;;;9.20;80.80;;;;;;4971298;28;20548;-83
2023/03/14 08:55:06;;;;;;;6.88;1.10;;;9.20;77.40;;;;;;4962000;28;20116;-82
2023/03/14 08:57:32;;;;;;;3.83;0.90;;;9.30;75.60;;;;;;4973730;28;20165;-83
2023/03/14 08:59:58;;;;;;;3.10;0.70;;;9.40;76.90;;;;;;4973243;28;20278;-83
2023/03/14 09:02:25;;;;;;;7.30;1.17;;;9.50;77.10;;;;;;4973270;28;20034;-82
2023/03/14 09:04:52;;;;;;;5.95;0.95;;;9.60;74.10;;;;;;4950847;28;20039;-82
2023/03/14 09:07:18;;;;;;;3.45;1.05;;;9.70;70.90;;;;;;4967725;28;20092;-82
2023/03/14 09:09:44;;;;;;;3.25;0.80;;;9.60;76.20;;;;;;4968467;28;20031;-83
2023/03/14 09:12:10;;;;;;;8.32;1.50;;;9.90;76.60;;;;;;4972931;28;20035;-81
2023/03/14 09:14:35;;;;;;;6.68;1.05;;;10.10;74.60;;;;;;4972714;28;20402;-76
2023/03/14 09:17:02;;;;;;;4.35;0.98;;;10.10;70.90;;;;;;4964019;28;20031;-76
2023/03/14 09:19:28;;;;;;;3.55;0.80;;;9.80;74.70;;;;;;4963929;28;20023;-76
2023/03/14 09:21:54;;;;;;;5.88;0.70;;;9.60;74.50;;;;;;4973441;23;20498;-76
2023/03/14 09:24:20;;;;;;;6.32;0.90;;;9.30;79.80;;;;;;4950797;28;20100;-77
2023/03/14 09:26:45;;;;;;;2.92;1.20;;;9.30;78.70;;;;;;4973494;28;20034;-76
2023/03/14 09:29:11;;;;;;;4.50;0.93;;;9.40;81.70;;;;;;4960421;28;20041;-75
2023/03/14 09:31:36;;;;;;;5.22;0.90;;;9.60;82.90;;;;;;4956970;28;20027;-76
2023/03/14 09:34:02;;;;;;;3.60;1.10;;;9.80;77.10;;;;;;4972209;28;20030;-76
2023/03/14 09:36:29;;;;;;;4.72;0.82;;;9.90;73.70;;;;;;4978530;28;20061;-75
2023/03/14 09:38:54;;;;;;;7.65;1.05;;;10.30;77.30;;;;;;4979346;28;20572;-76
2023/03/14 09:41:29;;;;;;;4.38;1.40;;;10.50;73.60;;;;;;4963660;28;20026;-76
2023/03/14 09:44:05;;;;;;;3.85;0.95;;;10.70;69.70;;;;;;4977244;28;20029;-76
2023/03/14 09:46:34;;;;;;;7.80;1.95;;;10.80;71.40;;;;;;4980661;28;20060;-76
2023/03/14 09:49:00;;;;;;;8.30;2.58;;;10.70;68.20;;;;;;4974912;28;20458;-76
2023/03/14 09:51:26;;;;;;;3.10;0.93;;;11.20;65.40;;;;;;4975089;28;20034;-76
2023/03/14 09:53:52;;;;;;;5.10;0.98;;;11.60;65.70;;;;;;4975287;28;20022;-75
2023/03/14 09:56:27;;;;;;;5.82;0.90;;;12.00;63.00;;;;;;4979306;28;20042;-76
2023/03/14 09:58:58;;;;;;;4.32;0.65;;;12.00;64.30;;;;;;4974272;28;20030;-76
2023/03/14 10:01:30;;;;;;;3.03;0.70;;;12.80;60.70;;;;;;4975236;28;20177;-75
2023/03/14 10:04:00;;;;;;;2.63;0.40;;;13.20;57.50;;;;;;4963111;28;20035;-76
2023/03/14 10:06:28;;;;;;;1.30;0.40;;;13.30;57.00;;;;;;4973722;28;20647;-76
2023/03/14 10:08:56;;;;;;;2.40;0.30;;;14.50;54.80;;;;;;4981950;28;20061;-76
2023/03/14 10:11:22;;;;;;;2.15;0.40;;;16.20;49.60;;;;;;4967655;28;20093;-76
2023/03/14 10:14:11;;;;;;;1.65;0.40;;;17.60;47.50;;;;;;4975466;28;20101;-76
2023/03/14 10:16:43;;;;;;;2.35;0.50;;;17.10;45.50;;;;;;4981788;28;20188;-76
2023/03/14 10:19:14;;;;;;;5.22;1.00;;;16.70;46.30;;;;;;4980965;28;20113;-77
2023/03/14 10:21:49;;;;;;;4.70;0.80;;;15.50;47.90;;;;;;4989714;28;20081;-79
2023/03/14 10:24:27;;;;;;;2.67;0.50;;;14.00;52.20;;;;;;4982782;28;20551;-77
2023/03/14 10:27:05;;;;;;;2.72;0.50;;;13.10;55.00;;;;;;4993986;28;20025;-77
2023/03/14 10:29:32;;;;;;;2.63;0.50;;;12.20;58.60;;;;;;4995875;28;20077;-76
2023/03/14 10:32:05;;;;;;;0.95;0.40;;;11.20;62.70;;;;;;4990523;28;20548;-76
2023/03/14 10:34:35;;;;;;;1.10;0.30;;;10.50;68.20;;;;;;4987393;28;20026;-77
2023/03/14 10:37:16;;;;;;;2.77;0.50;;;10.20;71.90;;;;;;4642277;28;10000051;-76
2023/03/14 10:39:54;;;;;;;2.45;0.40;;;10.00;78.10;;;;;;4991225;28;20029;-77
2023/03/14 10:42:31;;;;;;;1.85;0.43;;;9.70;77.40;;;;;;4999667;28;20049;-76
2023/03/14 10:45:28;;;;;;;0.60;0.40;;;9.40;83.10;;;;;;5002387;28;20029;-76
2023/03/14 10:47:54;;;;;;;1.50;0.60;;;10.10;82.60;;;;;;4990644;28;20057;-76
2023/03/14 10:50:29;;;;;;;2.05;0.60;;;11.30;72.90;;;;;;4997493;28;20053;-77
2023/03/14 10:52:56;;;;;;;1.50;0.73;;;12.30;60.60;;;;;;4994796;28;20081;-77
2023/03/14 10:55:24;;;;;;;1.25;0.60;;;13.00;58.90;;;;;;4998359;28;20056;-77
2023/03/14 10:57:50;;;;;;;2.50;0.50;;;13.70;57.20;;;;;;5000123;28;20076;-77
2023/03/14 11:00:21;;;;;;;1.58;0.55;;;14.00;54.90;;;;;;5004612;28;20038;-78
2023/03/14 11:03:05;;;;;;;1.20;0.50;;;13.90;53.40;;;;;;4994729;28;20034;-77
2023/03/14 11:05:38;;;;;;;1.00;0.50;;;13.20;56.40;;;;;;5001869;28;20146;-76
2023/03/14 11:08:20;;;;;;;2.03;0.60;;;12.70;58.70;;;;;;5000110;28;20034;-77
2023/03/14 11:10:51;;;;;;;1.42;0.50;;;13.10;61.30;;;;;;5001907;28;20084;-78
2023/03/14 11:13:22;;;;;;;0.98;0.40;;;14.50;56.70;;;;;;5001208;28;20026;-77
2023/03/14 11:15:59;;;;;;;1.90;0.60;;;16.60;52.10;;;;;;5001881;28;20045;-78
2023/03/14 11:18:44;;;;;;;1.80;0.50;;;19.20;46.30;;;;;;4992781;28;20080;-78
2023/03/14 11:21:22;;;;;;;1.52;0.40;;;22.10;37.60;;;;;;4997623;28;20081;-76
2023/03/14 11:24:00;;;;;;;2.13;0.70;;;23.90;34.90;;;;;;4997533;28;20176;-77
2023/03/14 11:26:38;;;;;;;1.70;0.43;;;22.00;33.20;;;;;;4992140;28;20034;-77
2023/03/14 11:29:38;;;;;;;2.42;0.70;;;22.40;34.50;;;;;;4998898;28;20030;-75
2023/03/14 11:32:31;;;;;;;2.08;0.73;;;22.80;31.90;;;;;;4993252;28;20053;-77
2023/03/14 11:35:03;;;;;;;3.63;0.88;;;21.80;33.80;;;;;;4990831;28;20057;-77
2023/03/14 11:37:33;;;;;;;3.88;0.93;;;21.60;34.30;;;;;;4987651;28;20504;-76
2023/03/14 11:40:14;;;;;;;3.85;1.10;;;21.20;37.00;;;;;;4987251;28;20022;-77
2023/03/14 11:42:43;;;;;;;6.63;2.38;;;19.30;38.60;;;;;;4976689;28;20033;-76
2023/03/14 11:45:20;;;;;;;3.15;1.08;;;18.20;39.50;;;;;;4999180;28;20034;-77
2023/03/14 11:48:01;;;;;;;3.35;1.02;;;16.70;43.30;;;;;;4999297;28;20022;-77
2023/03/14 11:50:30;;;;;;;3.67;0.77;;;16.10;42.80;;;;;;4981548;28;20037;-77
2023/03/14 11:53:32;;;;;;;3.08;0.75;;;15.50;43.60;;;;;;4982596;28;20031;-77
2023/03/14 11:55:58;;;;;;;6.00;1.08;;;15.30;43.80;;;;;;4973830;28;20402;-77
2023/03/14 11:58:29;;;;;;;4.38;0.75;;;15.00;46.80;;;;;;4995420;28;20085;-77
2023/03/14 12:00:57;;;;;;;3.72;0.95;;;15.30;46.90;;;;;;4999928;28;20639;-78
2023/03/14 12:03:41;;;;;;;4.38;1.23;;;14.90;44.70;;;;;;4996834;28;20030;-76
2023/03/14 12:06:10;;;;;;;2.40;0.80;;;13.90;44.90;;;;;;4996764;28;20519;-77
2023/03/14 12:08:50;;;;;;;7.50;1.00;;;13.10;49.60;;;;;;4998396;28;20037;-77
2023/03/14 12:11:43;;;;;;;3.13;0.75;;;13.30;53.40;;;;;;4996951;28;20044;-76
2023/03/14 12:14:24;;;;;;;3.92;0.77;;;13.40;51.30;;;;;;5000450;28;20033;-77
2023/03/14 12:16:58;;;;;;;4.95;1.00;;;13.10;52.50;;;;;;4986072;28;20061;-76
2023/03/14 12:19:23;;;;;;;3.55;0.70;;;13.30;52.20;;;;;;4997386;28;20065;-76
2023/03/14 12:21:54;;;;;;;5.20;0.80;;;14.50;52.80;;;;;;4998556;28;20564;-76
2023/03/14 12:24:25;;;;;;;3.65;0.85;;;15.70;48.80;;;;;;4998648;28;20026;-77
2023/03/14 12:26:59;;;;;;;2.97;0.65;;;16.40;46.70;;;;;;4996418;28;20029;-77
2023/03/14 12:29:25;;;;;;;4.28;0.75;;;16.40;47.30;;;;;;4998895;28;20037;-77
2023/03/14 12:32:22;;;;;;;6.07;2.53;;;16.70;46.60;;;;;;4999565;28;20816;-77
2023/03/14 12:34:47;;;;;;;3.40;0.80;;;15.70;44.30;;;;;;4986550;28;20096;-76
2023/03/14 12:37:36;;;;;;;3.85;1.00;;;14.70;45.10;;;;;;4998462;28;20033;-78
2023/03/14 12:40:09;;;;;;;3.67;0.50;;;15.20;49.50;;;;;;4998219;28;20041;-78
2023/03/14 12:42:40;;;;;;;6.13;0.93;;;15.20;46.80;;;;;;4998047;28;20037;-79
2023/03/14 12:45:24;;;;;;;3.15;0.65;;;15.20;47.90;;;;;;4971859;28;20025;-78
2023/03/14 12:47:50;;;;;;;3.13;0.70;;;15.20;47.20;;;;;;4998739;28;20045;-79
2023/03/14 12:50:20;;;;;;;2.22;0.80;;;15.30;49.50;;;;;;4980991;28;20030;-78
2023/03/14 12:53:10;;;;;;;1.95;0.80;;;15.40;46.30;;;;;;4992705;28;20033;-78
2023/03/14 12:55:44;;;;;;;2.13;0.70;;;15.20;44.90;;;;;;4996511;28;20477;-79
2023/03/14 12:58:29;;;;;;;4.13;0.80;;;15.10;45.00;;;;;;4997671;28;20026;-79